Portada
METAR-TAF:

METAR-TAF

Aeroports :

Yeovilton, Anglaterra

latitud: 51-00N, longitud: 002-38W, altitud: 23 m

Observació

L'informe es va fer fa 24 minuts, a les 09:20 UTC
Vent 11 kt del Sud-Oest
Temperatura 19°C
Humitat 64%
Pressió 1025 hPa
Visibilitat 10 km o més
Escasses núvols a una alçada de 1500 ft

METAR: EGDY 220920Z 22011KT 9999 FEW015 19/12 Q1025 NOSIG RMK BLU BLU

Hora: 10:44 (09:44 UTC)

Pronòstic

L'informe es va fer fa 1 hora i 39 minuts, a les 08:05 UTC
Pronòstic vàlid del 22 a les 09 UTC al 22 a les 18 UTC
Vent 12 kt del Oest/Sud-Oest
Visibilitat 10 km o més
Núvols disperses a una alçada de 3000 ft
Evolucionant progressivament
l' 22 a les 12 UTC al 22 a les 15 UTC
Vent 10 kt del Oest/Sud-Oest amb ràfegues de 20 kt
Evolucionant progressivament
l' 22 a les 16 UTC al 22 a les 18 UTC
Núvols disperses a una alçada de 2000 ft

TAF: EGDY 220805Z 2209/2218 24012KT 9999 SCT030 BECMG 2212/2215 24010G20KT BECMG 2216/2218 SCT020

Observacions i pronòstics meteorològics de més de 4000 aeroports (METAR i TAF).

Les estacions disponibles són els punts grocs i vermells al mapa.

Posi el ratolí al punt desitjat per veure el nom de l'estació.

Feu clic per veure les observacions i els pronòstics meteorològics.

Per canviar el mapa: feu clic els botons verds amb una creu de color negre per apropar; al botó verd amb un guió per allunyar la imatge; o en les fletxes verdes per a mapes adjacents.


METAR-TAF: